createdAt,value
2022-08-16T00:01:26.484Z,12.48
2022-08-16T00:03:59.765Z,12.23
2022-08-16T00:06:29.297Z,12.05
2022-08-16T00:08:57.009Z,12.95
2022-08-16T00:11:24.847Z,13.48
2022-08-16T00:13:55.641Z,13.63
2022-08-16T00:17:00.547Z,13.88
2022-08-16T00:19:15.611Z,13.85
2022-08-16T00:21:44.477Z,13.80
2022-08-16T00:24:13.345Z,12.10
2022-08-16T00:26:59.458Z,12.55
2022-08-16T00:29:29.657Z,13.25
2022-08-16T00:32:01.403Z,13.88
2022-08-16T00:34:41.227Z,12.30
2022-08-16T00:37:17.166Z,13.82
2022-08-16T00:39:48.012Z,12.77
2022-08-16T00:42:29.803Z,12.65
2022-08-16T00:45:08.117Z,14.20
2022-08-16T00:47:40.124Z,14.32
2022-08-16T00:50:12.881Z,14.82
2022-08-16T00:52:51.238Z,15.13
2022-08-16T00:55:23.392Z,15.18
2022-08-16T00:57:59.769Z,12.32
2022-08-16T01:00:30.987Z,11.52
2022-08-16T01:03:03.686Z,12.65
2022-08-16T01:05:33.570Z,13.27
2022-08-16T01:08:02.541Z,14.27
2022-08-16T01:10:51.114Z,12.93
2022-08-16T01:13:22.391Z,12.10
2022-08-16T01:15:53.644Z,12.82
2022-08-16T01:18:40.428Z,12.65
2022-08-16T01:21:22.773Z,12.40
2022-08-16T01:24:04.725Z,13.15
2022-08-16T01:26:35.597Z,15.18
2022-08-16T01:29:09.852Z,14.80
2022-08-16T01:31:42.799Z,14.93
2022-08-16T01:34:23.261Z,14.10
2022-08-16T01:37:03.727Z,14.50
2022-08-16T01:39:35.192Z,14.40
2022-08-16T01:42:04.579Z,13.90
2022-08-16T01:44:40.733Z,13.40
2022-08-16T01:47:10.834Z,14.73
2022-08-16T01:49:45.711Z,15.00
2022-08-16T01:52:30.730Z,14.05
2022-08-16T01:55:00.579Z,14.68
2022-08-16T01:57:31.485Z,15.07
2022-08-16T01:59:59.999Z,14.57
2022-08-16T02:02:28.918Z,12.38
2022-08-16T02:04:58.025Z,14.05
2022-08-16T02:07:26.043Z,14.65
2022-08-16T02:09:57.550Z,14.95
2022-08-16T02:12:49.955Z,14.50
2022-08-16T02:15:24.896Z,12.15
2022-08-16T02:17:53.889Z,10.10
2022-08-16T02:20:26.233Z,12.63
2022-08-16T02:22:55.199Z,12.98
2022-08-16T02:25:24.500Z,14.32
2022-08-16T02:27:54.558Z,14.57
2022-08-16T02:30:37.130Z,14.82
2022-08-16T02:33:12.921Z,13.98
2022-08-16T02:35:53.690Z,13.43
2022-08-16T02:38:22.160Z,13.00
2022-08-16T02:40:50.217Z,13.95
2022-08-16T02:43:19.437Z,13.57
2022-08-16T02:45:47.182Z,13.68
2022-08-16T02:48:29.091Z,12.77
2022-08-16T02:51:11.058Z,13.57
2022-08-16T02:53:43.075Z,13.95
2022-08-16T02:56:12.311Z,13.15
2022-08-16T03:01:25.124Z,13.20
2022-08-16T03:04:39.449Z,12.60
2022-08-16T03:06:56.159Z,12.43
2022-08-16T03:09:29.850Z,13.18
2022-08-16T03:12:01.011Z,13.65
2022-08-16T03:14:32.872Z,12.25
2022-08-16T03:17:02.057Z,12.93
2022-08-16T03:19:47.307Z,11.15
2022-08-16T03:22:28.737Z,12.20
2022-08-16T03:24:59.044Z,13.23
2022-08-16T03:30:17.335Z,12.45
2022-08-16T03:32:47.981Z,12.73
2022-08-16T03:35:22.051Z,11.45
2022-08-16T03:38:02.923Z,11.63
2022-08-16T03:40:33.869Z,10.80
2022-08-16T03:43:20.187Z,12.40
2022-08-16T03:45:52.333Z,12.02
2022-08-16T03:48:36.643Z,10.63
2022-08-16T03:51:07.965Z,10.65
2022-08-16T03:53:37.630Z,11.43
2022-08-16T03:56:07.925Z,10.10
2022-08-16T03:58:37.069Z,11.98
2022-08-16T04:01:07.423Z,10.98
2022-08-16T04:03:35.719Z,11.02
2022-08-16T04:06:04.173Z,11.32
2022-08-16T04:08:32.273Z,12.45
2022-08-16T04:11:03.612Z,11.40
2022-08-16T04:14:01.619Z,11.25
2022-08-16T04:16:27.102Z,10.50
2022-08-16T04:19:02.688Z,10.13
2022-08-16T04:21:32.999Z,11.75
2022-08-16T04:24:01.544Z,12.15
2022-08-16T04:26:32.302Z,12.20
2022-08-16T04:29:15.070Z,12.60
2022-08-16T04:31:45.781Z,13.27
2022-08-16T04:34:14.538Z,12.35
2022-08-16T04:36:42.320Z,13.10
2022-08-16T04:39:17.160Z,12.50
2022-08-16T04:41:44.930Z,12.55
2022-08-16T04:44:32.308Z,12.05
2022-08-16T04:47:21.677Z,11.80
2022-08-16T04:49:50.871Z,12.55
2022-08-16T04:52:35.234Z,11.18
2022-08-16T04:55:07.548Z,11.55
2022-08-16T04:57:36.761Z,11.20
2022-08-16T05:00:31.898Z,11.93
2022-08-16T05:03:07.029Z,12.60
2022-08-16T05:05:45.180Z,12.20
2022-08-16T05:08:28.324Z,12.98
2022-08-16T05:10:58.947Z,11.85
2022-08-16T05:13:41.461Z,12.15
2022-08-16T05:16:20.108Z,12.30
2022-08-16T05:18:53.761Z,12.48
2022-08-16T05:21:24.597Z,12.50
2022-08-16T05:24:00.310Z,11.57
2022-08-16T05:26:31.793Z,11.80
2022-08-16T05:29:03.810Z,12.57
2022-08-16T05:31:32.637Z,12.13
2022-08-16T05:34:05.124Z,11.18
2022-08-16T05:36:47.444Z,10.30
2022-08-16T05:39:20.890Z,10.45
2022-08-16T05:41:51.965Z,10.32
2022-08-16T05:44:23.260Z,10.27
2022-08-16T05:46:55.043Z,10.30
2022-08-16T05:49:38.273Z,9.85
2022-08-16T05:52:11.475Z,11.23
2022-08-16T05:54:46.558Z,9.98
2022-08-16T05:57:16.509Z,9.95
2022-08-16T05:59:45.502Z,10.02
2022-08-16T06:02:14.442Z,10.20
2022-08-16T06:04:45.200Z,10.13
2022-08-16T06:07:24.965Z,9.67
2022-08-16T06:09:56.201Z,9.10
2022-08-16T06:12:26.770Z,9.77
2022-08-16T06:14:59.721Z,9.05
2022-08-16T06:17:42.381Z,8.23
2022-08-16T06:20:18.523Z,8.40
2022-08-16T06:22:59.031Z,8.52
2022-08-16T06:25:36.756Z,9.77
2022-08-16T06:28:09.675Z,9.25
2022-08-16T06:30:44.191Z,9.10
2022-08-16T06:33:22.416Z,9.35
2022-08-16T06:35:55.137Z,9.35
2022-08-16T06:38:33.320Z,9.98
2022-08-16T06:41:04.904Z,9.25
2022-08-16T06:43:35.629Z,9.25
2022-08-16T06:46:06.158Z,9.40
2022-08-16T06:48:42.931Z,9.98
2022-08-16T06:51:14.895Z,9.93
2022-08-16T06:53:43.539Z,9.00
2022-08-16T06:56:14.570Z,9.00
2022-08-16T06:58:52.981Z,9.52
2022-08-16T07:01:43.367Z,9.80
2022-08-16T07:04:11.802Z,9.07
2022-08-16T07:06:43.102Z,9.68
2022-08-16T07:09:12.598Z,10.00
2022-08-16T07:11:45.938Z,7.97
2022-08-16T07:14:25.193Z,8.95
2022-08-16T07:16:58.227Z,8.35
2022-08-16T07:22:38.919Z,9.27
2022-08-16T07:25:04.281Z,8.82
2022-08-16T07:27:33.751Z,9.10
2022-08-16T07:30:38.155Z,8.38
2022-08-16T07:32:55.481Z,9.45
2022-08-16T07:35:24.211Z,9.35
2022-08-16T07:37:54.175Z,8.45
2022-08-16T07:40:32.179Z,9.13
2022-08-16T07:43:10.225Z,9.35
2022-08-16T07:45:39.346Z,9.65
2022-08-16T07:48:12.692Z,8.55
2022-08-16T07:50:57.064Z,9.65
2022-08-16T07:53:30.400Z,9.48
2022-08-16T07:56:00.133Z,8.60
2022-08-16T07:58:33.871Z,9.70
2022-08-16T08:01:05.698Z,8.63
2022-08-16T08:03:42.478Z,9.77
2022-08-16T08:06:11.910Z,9.95
2022-08-16T08:08:50.489Z,9.07
2022-08-16T08:11:19.790Z,9.65
2022-08-16T08:13:50.587Z,9.55
2022-08-16T08:16:19.858Z,9.45
2022-08-16T08:18:50.330Z,9.93
2022-08-16T08:21:27.322Z,10.15
2022-08-16T08:26:26.198Z,9.40
2022-08-16T08:29:01.003Z,9.50
2022-08-16T08:31:29.954Z,9.98
2022-08-16T08:34:00.555Z,10.15
2022-08-16T08:36:34.413Z,9.68
2022-08-16T08:39:12.742Z,9.73
2022-08-16T08:41:42.473Z,9.43
2022-08-16T08:44:28.949Z,9.82
2022-08-16T08:47:01.876Z,9.75
2022-08-16T08:49:46.293Z,10.23
2022-08-16T08:52:34.460Z,10.38
2022-08-16T08:55:10.335Z,9.68
2022-08-16T08:57:41.014Z,9.50
2022-08-16T09:00:13.608Z,9.95
2022-08-16T09:02:44.560Z,10.63
2022-08-16T09:05:16.222Z,9.82
2022-08-16T09:08:01.718Z,9.15
2022-08-16T09:10:34.825Z,9.68
2022-08-16T09:13:10.674Z,9.68
2022-08-16T09:15:38.750Z,9.55
2022-08-16T09:18:26.333Z,9.82
2022-08-16T09:20:59.869Z,10.07
2022-08-16T09:23:31.386Z,10.27
2022-08-16T09:26:44.053Z,9.82
2022-08-16T09:29:16.860Z,9.88
2022-08-16T09:31:45.213Z,9.82
2022-08-16T09:34:18.665Z,9.82
2022-08-16T09:36:47.477Z,9.93
2022-08-16T09:39:16.514Z,11.07
2022-08-16T09:41:53.979Z,10.80
2022-08-16T09:45:11.504Z,10.80
2022-08-16T09:47:11.913Z,10.38
2022-08-16T09:49:41.111Z,10.73
2022-08-16T09:52:09.843Z,10.07
2022-08-16T09:54:44.540Z,10.60
2022-08-16T09:57:14.739Z,10.48
2022-08-16T09:59:43.193Z,10.65
2022-08-16T10:02:22.949Z,10.32
2022-08-16T10:04:57.217Z,10.20
2022-08-16T10:07:26.258Z,9.50
2022-08-16T10:10:18.657Z,10.18
2022-08-16T10:13:07.952Z,10.75
2022-08-16T10:15:37.574Z,10.07
2022-08-16T10:18:41.065Z,11.13
2022-08-16T10:20:59.317Z,10.48
2022-08-16T10:23:29.557Z,10.38
2022-08-16T10:27:17.874Z,10.30
2022-08-16T10:28:46.874Z,10.52
2022-08-16T10:31:44.264Z,10.55
2022-08-16T10:34:30.918Z,11.07
2022-08-16T10:36:54.794Z,10.77
2022-08-16T10:39:22.956Z,10.80
2022-08-16T10:41:52.133Z,10.85
2022-08-16T10:44:21.548Z,11.32
2022-08-16T10:46:50.168Z,12.30
2022-08-16T10:49:18.369Z,11.35
2022-08-16T10:52:02.682Z,10.73
2022-08-16T10:54:58.395Z,10.00
2022-08-16T10:57:24.573Z,10.40
2022-08-16T11:46:45.100Z,11.52
2022-08-16T11:49:13.230Z,11.35
2022-08-16T11:51:43.913Z,12.10
2022-08-16T11:54:21.522Z,11.70
2022-08-16T11:56:52.461Z,11.00
2022-08-16T11:59:28.865Z,10.82
2022-08-16T12:01:59.993Z,10.80
2022-08-16T12:04:28.435Z,11.70
2022-08-16T12:06:56.213Z,11.57
2022-08-16T12:09:24.798Z,11.02
2022-08-16T12:11:53.487Z,11.43
2022-08-16T12:14:22.975Z,10.77
2022-08-16T12:16:55.179Z,11.40
2022-08-16T12:19:33.604Z,12.65
2022-08-16T12:22:05.600Z,11.13
2022-08-16T12:24:47.864Z,10.85
2022-08-16T12:32:35.680Z,4.05
2022-08-16T12:35:07.397Z,4.25
2022-08-16T12:37:36.095Z,4.80
2022-08-16T12:40:07.167Z,6.20
2022-08-16T12:42:53.349Z,6.88
2022-08-16T12:45:24.209Z,5.38
2022-08-16T12:48:34.228Z,5.95
2022-08-16T12:51:01.049Z,5.63
2022-08-16T12:53:31.683Z,6.28
2022-08-16T12:56:00.378Z,9.02
2022-08-16T12:58:49.080Z,11.50
2022-08-16T13:01:16.510Z,12.52
2022-08-16T13:03:46.374Z,13.02
2022-08-16T13:06:20.084Z,13.48
2022-08-16T13:09:02.447Z,14.82
2022-08-16T13:11:36.326Z,14.32
2022-08-16T13:14:06.246Z,14.52
2022-08-16T13:16:34.982Z,13.43
2022-08-16T13:19:04.815Z,11.10
2022-08-16T13:21:35.326Z,10.80
2022-08-16T13:24:04.229Z,14.38
2022-08-16T13:26:33.678Z,13.57
2022-08-16T13:29:01.589Z,13.15
2022-08-16T13:31:29.275Z,11.70
2022-08-16T13:33:58.602Z,14.05
2022-08-16T13:39:17.095Z,12.15
2022-08-16T13:41:54.048Z,11.57
2022-08-16T13:44:22.513Z,20.27
2022-08-16T13:47:10.559Z,10.80
2022-08-16T13:49:38.383Z,12.38
2022-08-16T13:52:09.055Z,10.27
2022-08-16T13:54:37.127Z,15.43
2022-08-16T13:57:05.314Z,9.25
2022-08-16T13:59:33.420Z,10.13
2022-08-16T14:02:04.034Z,10.98
2022-08-16T14:04:36.543Z,10.18
2022-08-16T14:07:09.073Z,11.88
2022-08-16T14:09:37.981Z,12.40
2022-08-16T14:12:09.799Z,13.68
2022-08-16T14:14:46.701Z,15.75
2022-08-16T14:17:16.646Z,13.20
2022-08-16T14:19:46.229Z,8.65
2022-08-16T14:22:30.864Z,8.95
2022-08-16T14:25:00.831Z,9.20
2022-08-16T14:27:31.458Z,9.07
2022-08-16T14:29:59.859Z,8.52
2022-08-16T14:32:33.845Z,8.80
2022-08-16T14:35:05.297Z,7.85
2022-08-16T14:37:37.078Z,9.65
2022-08-16T14:40:06.408Z,9.10
2022-08-16T14:42:36.632Z,8.13
2022-08-16T14:45:05.478Z,8.93
2022-08-16T14:47:36.994Z,9.27
2022-08-16T14:55:24.718Z,11.32
2022-08-16T14:57:54.581Z,11.05
2022-08-16T15:00:33.212Z,11.52
2022-08-16T15:03:09.780Z,11.10
2022-08-16T15:05:39.527Z,11.60
2022-08-16T15:08:07.924Z,11.60
2022-08-16T15:10:42.814Z,11.65
2022-08-16T15:13:15.273Z,11.73
2022-08-16T15:15:43.982Z,12.55
2022-08-16T15:18:14.303Z,11.60
2022-08-16T15:20:53.166Z,11.88
2022-08-16T15:23:21.190Z,11.18
2022-08-16T15:26:03.158Z,13.05
2022-08-16T15:28:32.674Z,13.70
2022-08-16T15:31:03.980Z,24.75
2022-08-16T15:33:34.728Z,12.02
2022-08-16T15:36:04.151Z,12.07
2022-08-16T15:39:03.022Z,19.45
2022-08-16T15:42:01.115Z,13.65
2022-08-16T15:44:38.891Z,12.93
2022-08-16T15:47:19.627Z,11.82
2022-08-16T15:49:53.108Z,11.43
2022-08-16T15:52:29.553Z,12.57
2022-08-16T15:55:00.116Z,11.93
2022-08-16T15:57:41.189Z,12.05
2022-08-16T16:00:15.332Z,12.25
2022-08-16T16:02:45.127Z,12.88
2022-08-16T16:05:13.949Z,13.38
2022-08-16T16:07:56.319Z,13.43
2022-08-16T16:10:29.335Z,13.18
2022-08-16T16:13:00.762Z,12.65
2022-08-16T16:15:32.339Z,13.38
2022-08-16T16:18:09.326Z,12.70
2022-08-16T16:20:43.463Z,12.73
2022-08-16T16:23:12.063Z,12.77
2022-08-16T16:25:43.607Z,13.68
2022-08-16T16:29:05.272Z,12.82
2022-08-16T16:31:04.803Z,13.00
2022-08-16T16:33:36.979Z,12.73
2022-08-16T16:36:07.227Z,13.10
2022-08-16T16:38:35.976Z,13.70
2022-08-16T16:41:09.942Z,14.05
2022-08-16T16:43:42.069Z,13.73
2022-08-16T16:46:40.278Z,13.18
2022-08-16T16:49:03.101Z,14.15
2022-08-16T16:51:40.581Z,16.17
2022-08-16T16:54:12.828Z,14.25
2022-08-16T16:56:49.846Z,13.90
2022-08-16T16:59:19.902Z,13.27
2022-08-16T17:01:59.328Z,12.85
2022-08-16T17:04:32.346Z,12.93
2022-08-16T17:09:29.689Z,12.52
2022-08-16T17:11:58.129Z,13.18
2022-08-16T17:14:32.018Z,15.18
2022-08-16T17:17:03.963Z,16.13
2022-08-16T17:19:32.584Z,15.80
2022-08-16T17:22:00.865Z,14.38
2022-08-16T17:24:31.387Z,14.68
2022-08-16T17:27:08.513Z,15.20
2022-08-16T17:29:44.146Z,16.60
2022-08-16T17:32:47.097Z,17.08
2022-08-16T17:35:10.779Z,17.25
2022-08-16T17:37:48.646Z,19.35
2022-08-16T17:40:25.889Z,16.83
2022-08-16T17:43:10.199Z,16.27
2022-08-16T17:45:40.502Z,16.75
2022-08-16T17:48:08.757Z,15.57
2022-08-16T17:50:37.151Z,14.45
2022-08-16T17:53:08.117Z,17.20
2022-08-16T17:55:39.791Z,17.52
2022-08-16T17:58:23.358Z,16.95
2022-08-16T18:00:56.050Z,15.80
2022-08-16T18:04:03.234Z,16.90
2022-08-16T18:06:15.771Z,17.77
2022-08-16T18:08:43.908Z,16.52
2022-08-16T18:11:13.352Z,26.88
2022-08-16T18:13:43.140Z,21.52
2022-08-16T18:16:15.454Z,20.50
2022-08-16T18:18:43.848Z,18.50
2022-08-16T18:21:29.867Z,18.05
2022-08-16T18:23:57.905Z,16.60
2022-08-16T18:26:25.683Z,16.13
2022-08-16T18:28:53.382Z,19.92
2022-08-16T18:31:22.819Z,16.27
2022-08-16T18:33:55.629Z,19.77
2022-08-16T18:36:24.079Z,19.55
2022-08-16T18:38:53.667Z,17.80
2022-08-16T18:41:23.688Z,17.13
2022-08-16T18:44:22.549Z,17.58
2022-08-16T18:46:43.701Z,17.63
2022-08-16T18:49:13.162Z,18.35
2022-08-16T18:51:46.207Z,17.15
2022-08-16T18:54:17.978Z,16.80
2022-08-16T18:56:56.588Z,18.63
2022-08-16T18:59:27.877Z,25.10
2022-08-16T19:02:00.223Z,21.25
2022-08-16T19:04:55.364Z,19.77
2022-08-16T19:07:21.403Z,22.73
2022-08-16T19:09:56.686Z,23.90
2022-08-16T19:12:38.477Z,17.80
2022-08-16T19:15:14.352Z,15.50
2022-08-16T19:17:45.881Z,15.40
2022-08-16T19:20:16.362Z,16.45
2022-08-16T19:23:05.976Z,15.48
2022-08-16T19:25:49.109Z,17.92
2022-08-16T19:28:51.691Z,17.38
2022-08-16T19:31:18.910Z,16.52
2022-08-16T19:33:54.825Z,16.48
2022-08-16T19:36:32.171Z,15.02
2022-08-16T19:39:05.121Z,16.17
2022-08-16T19:41:35.894Z,17.10
2022-08-16T19:44:04.774Z,14.80
2022-08-16T19:46:32.646Z,16.08
2022-08-16T19:49:02.105Z,15.77
2022-08-16T19:51:30.014Z,15.68
2022-08-16T19:53:57.742Z,15.48
2022-08-16T19:56:26.617Z,15.57
2022-08-16T20:01:43.633Z,15.45
2022-08-16T20:04:13.486Z,15.85
2022-08-16T20:06:41.354Z,16.80
2022-08-16T20:09:10.501Z,15.25
2022-08-16T20:11:42.595Z,16.17
2022-08-16T20:14:10.926Z,15.63
2022-08-16T20:16:39.003Z,15.73
2022-08-16T20:19:06.785Z,16.30
2022-08-16T20:21:36.372Z,16.42
2022-08-16T20:24:32.104Z,16.45
2022-08-16T20:26:52.427Z,17.83
2022-08-16T20:29:20.651Z,16.98
2022-08-16T20:31:48.411Z,17.40
2022-08-16T20:34:17.323Z,18.27
2022-08-16T20:36:46.463Z,19.40
2022-08-16T20:39:14.360Z,18.95
2022-08-16T20:41:43.238Z,18.27
2022-08-16T20:44:12.132Z,19.23
2022-08-16T20:46:40.178Z,17.92
2022-08-16T20:49:10.222Z,17.70
2022-08-16T20:51:49.759Z,20.05
2022-08-16T20:54:20.685Z,18.77
2022-08-16T20:56:48.593Z,19.80
2022-08-16T20:59:16.654Z,20.08
2022-08-16T21:01:49.595Z,20.13
2022-08-16T21:04:18.998Z,19.35
2022-08-16T21:06:53.462Z,20.92
2022-08-16T21:09:25.562Z,19.65
2022-08-16T21:11:55.166Z,20.47
2022-08-16T21:14:22.895Z,20.27
2022-08-16T21:16:50.645Z,19.83
2022-08-16T21:19:19.188Z,20.60
2022-08-16T21:21:47.062Z,19.02
2022-08-16T21:24:15.119Z,20.17
2022-08-16T21:26:55.069Z,20.98
2022-08-16T21:29:26.194Z,20.83
2022-08-16T21:32:07.659Z,20.58
2022-08-16T21:34:36.124Z,20.60
2022-08-16T21:37:03.936Z,20.38
2022-08-16T21:39:32.342Z,21.75
2022-08-16T21:42:01.618Z,21.42
2022-08-16T21:44:38.556Z,21.65
2022-08-16T21:47:08.188Z,21.52
2022-08-16T21:49:36.639Z,20.75
2022-08-16T21:52:04.931Z,21.08
2022-08-16T21:54:32.830Z,21.85
2022-08-16T21:57:01.893Z,20.67
2022-08-16T21:59:29.831Z,22.13
2022-08-16T22:01:58.008Z,22.63
2022-08-16T22:04:37.055Z,21.52
2022-08-16T22:07:07.493Z,20.97
2022-08-16T22:09:35.471Z,22.60
2022-08-16T22:12:05.083Z,22.35
2022-08-16T22:14:33.641Z,20.70
2022-08-16T22:17:01.477Z,21.75
2022-08-16T22:19:29.341Z,20.98
2022-08-16T22:21:57.487Z,19.90
2022-08-16T22:24:25.356Z,22.52
2022-08-16T22:26:53.258Z,23.17
2022-08-16T22:29:22.561Z,22.95
2022-08-16T22:31:51.037Z,21.88
2022-08-16T22:34:19.418Z,22.92
2022-08-16T22:36:47.350Z,22.23
2022-08-16T22:39:15.310Z,21.88
2022-08-16T22:41:45.617Z,21.17
2022-08-16T22:44:13.930Z,20.88
2022-08-16T22:46:43.969Z,20.67
2022-08-16T22:49:12.186Z,20.85
2022-08-16T22:51:41.169Z,22.42
2022-08-16T22:54:45.770Z,21.38
2022-08-16T22:56:57.890Z,20.95
2022-08-16T22:59:26.007Z,20.30
2022-08-16T23:01:55.182Z,21.45
2022-08-16T23:04:24.803Z,22.08
2022-08-16T23:06:52.994Z,21.85
2022-08-16T23:09:20.911Z,21.27
2022-08-16T23:11:48.915Z,22.02
2022-08-16T23:14:16.773Z,22.38
2022-08-16T23:16:46.996Z,21.15
2022-08-16T23:19:17.701Z,21.55
2022-08-16T23:21:48.653Z,21.20
2022-08-16T23:24:19.204Z,22.05
2022-08-16T23:26:48.996Z,21.85
2022-08-16T23:29:24.032Z,21.27
2022-08-16T23:31:56.292Z,21.13
2022-08-16T23:34:27.668Z,22.33
2022-08-16T23:36:55.803Z,20.65
2022-08-16T23:39:24.516Z,22.15
2022-08-16T23:41:52.604Z,22.05
2022-08-16T23:44:56.047Z,23.83
2022-08-16T23:47:09.553Z,22.63
2022-08-16T23:49:56.076Z,23.30
2022-08-16T23:52:54.025Z,21.15
2022-08-16T23:55:16.211Z,21.95
2022-08-16T23:57:45.762Z,22.67
